createdAt,value
2017-07-06T00:00:39.744Z,65.34
2017-07-06T00:01:20.294Z,65.53
2017-07-06T00:02:00.811Z,65.53
2017-07-06T00:02:41.322Z,65.63
2017-07-06T00:03:21.827Z,65.34
2017-07-06T00:04:02.354Z,65.63
2017-07-06T00:04:42.873Z,65.43
2017-07-06T00:05:23.382Z,65.43
2017-07-06T00:06:03.870Z,65.34
2017-07-06T00:06:44.424Z,65.82
2017-07-06T00:07:24.889Z,65.34
2017-07-06T00:08:05.401Z,65.43
2017-07-06T00:08:45.884Z,65.43
2017-07-06T00:09:26.425Z,65.34
2017-07-06T00:10:06.959Z,65.53
2017-07-06T00:10:47.386Z,65.63
2017-07-06T00:11:27.909Z,65.34
2017-07-06T00:12:08.418Z,65.53
2017-07-06T00:12:48.921Z,65.34
2017-07-06T00:13:29.412Z,65.34
2017-07-06T00:14:09.921Z,65.24
2017-07-06T00:14:50.411Z,65.34
2017-07-06T00:15:30.925Z,65.43
2017-07-06T00:16:11.427Z,65.34
2017-07-06T00:16:51.879Z,65.34
2017-07-06T00:17:32.412Z,65.43
2017-07-06T00:18:12.932Z,65.82
2017-07-06T00:18:53.453Z,65.34
2017-07-06T00:19:33.924Z,65.63
2017-07-06T00:20:14.433Z,65.34
2017-07-06T00:20:54.955Z,65.63
2017-07-06T00:21:35.452Z,65.43
2017-07-06T00:22:15.996Z,65.24
2017-07-06T00:22:56.458Z,65.43
2017-07-06T00:23:36.947Z,65.34
2017-07-06T00:24:17.476Z,65.72
2017-07-06T00:24:57.949Z,65.63
2017-07-06T00:25:38.418Z,65.63
2017-07-06T00:26:18.950Z,66.3
2017-07-06T00:26:59.448Z,65.72
2017-07-06T00:27:39.984Z,66.02
2017-07-06T00:28:20.484Z,66.11
2017-07-06T00:29:01.138Z,65.92
2017-07-06T00:29:41.669Z,65.92
2017-07-06T00:30:22.195Z,65.92
2017-07-06T00:31:02.698Z,66.2
2017-07-06T00:31:43.184Z,65.24
2017-07-06T00:32:23.657Z,64.85
2017-07-06T00:33:04.211Z,64.82
2017-07-06T00:33:44.678Z,65.11
2017-07-06T00:34:25.156Z,65.4
2017-07-06T00:35:05.723Z,65.2
2017-07-06T00:35:46.152Z,64.92
2017-07-06T00:36:26.679Z,64.72
2017-07-06T00:37:07.168Z,65.01
2017-07-06T00:37:47.737Z,65.2
2017-07-06T00:38:28.177Z,64.92
2017-07-06T00:39:08.715Z,65.4
2017-07-06T00:39:49.175Z,64.82
2017-07-06T00:40:29.718Z,64.92
2017-07-06T00:41:10.348Z,64.53
2017-07-06T00:41:50.826Z,64.62
2017-07-06T00:42:31.407Z,64.43
2017-07-06T00:43:11.931Z,64.62
2017-07-06T00:43:52.430Z,64.53
2017-07-06T00:44:32.918Z,64.34
2017-07-06T00:45:13.391Z,63.95
2017-07-06T00:45:53.948Z,63.95
2017-07-06T00:46:34.411Z,64.14
2017-07-06T00:47:15.122Z,63.95
2017-07-06T00:47:55.649Z,63.66
2017-07-06T00:48:36.127Z,64.14
2017-07-06T00:49:16.682Z,63.85
2017-07-06T00:49:57.153Z,63.76
2017-07-06T00:50:37.692Z,63.66
2017-07-06T00:51:18.196Z,64.04
2017-07-06T00:51:58.702Z,63.95
2017-07-06T00:52:39.222Z,63.85
2017-07-06T00:53:19.716Z,63.95
2017-07-06T00:54:00.248Z,64.4
2017-07-06T00:54:40.776Z,64.69
2017-07-06T00:55:21.222Z,64.4
2017-07-06T00:56:01.779Z,64.53
2017-07-06T00:56:42.262Z,64.62
2017-07-06T00:57:22.800Z,64.04
2017-07-06T00:58:03.354Z,64.24
2017-07-06T00:58:43.823Z,63.76
2017-07-06T00:59:24.346Z,63.85
2017-07-06T01:00:04.798Z,64.34
2017-07-06T01:00:45.382Z,64.04
2017-07-06T01:01:25.834Z,64.62
2017-07-06T01:02:06.358Z,64.62
2017-07-06T01:02:46.855Z,64.72
2017-07-06T01:03:27.390Z,64.82
2017-07-06T01:04:07.902Z,65.01
2017-07-06T01:04:48.471Z,64.98
2017-07-06T01:05:28.926Z,65.5
2017-07-06T01:06:09.426Z,64.98
2017-07-06T01:06:49.953Z,64.82
2017-07-06T01:07:30.440Z,65.11
2017-07-06T01:08:10.890Z,65.11
2017-07-06T01:08:51.406Z,64.82
2017-07-06T01:09:31.906Z,64.92
2017-07-06T01:10:12.453Z,65.2
2017-07-06T01:10:52.908Z,65.11
2017-07-06T01:11:33.439Z,65.11
2017-07-06T01:12:13.923Z,65.2
2017-07-06T01:12:54.447Z,64.82
2017-07-06T01:13:34.979Z,65.47
2017-07-06T01:14:15.433Z,65.56
2017-07-06T01:14:55.956Z,65.47
2017-07-06T01:15:36.509Z,65.08
2017-07-06T01:16:16.957Z,65.95
2017-07-06T01:16:57.470Z,65.95
2017-07-06T01:17:38.016Z,66.63
2017-07-06T01:18:18.560Z,66.05
2017-07-06T01:18:59.064Z,65.95
2017-07-06T01:19:39.500Z,65.56
2017-07-06T01:20:19.999Z,66.14
2017-07-06T01:21:00.528Z,65.66
2017-07-06T01:21:41.025Z,65.98
2017-07-06T01:22:21.535Z,65.85
2017-07-06T01:23:02.008Z,65.75
2017-07-06T01:23:42.563Z,65.95
2017-07-06T01:24:23.049Z,65.95
2017-07-06T01:25:03.583Z,65.85
2017-07-06T01:25:44.069Z,65.47
2017-07-06T01:26:24.546Z,65.69
2017-07-06T01:27:05.102Z,65.95
2017-07-06T01:27:45.608Z,65.95
2017-07-06T01:28:26.082Z,65.98
2017-07-06T01:29:06.607Z,66.14
2017-07-06T01:29:47.101Z,66.14
2017-07-06T01:30:27.582Z,66.63
2017-07-06T01:31:08.149Z,66.63
2017-07-06T01:31:48.581Z,66.63
2017-07-06T01:32:29.085Z,66.72
2017-07-06T01:33:09.599Z,66.82
2017-07-06T01:33:50.097Z,66.72
2017-07-06T01:34:30.564Z,66.63
2017-07-06T01:35:11.148Z,66.43
2017-07-06T01:35:51.595Z,66.82
2017-07-06T01:36:32.111Z,66.82
2017-07-06T01:37:12.610Z,66.33
2017-07-06T01:37:53.120Z,66.63
2017-07-06T01:38:33.604Z,66.63
2017-07-06T01:39:14.087Z,66.63
2017-07-06T01:39:54.602Z,66.72
2017-07-06T01:40:35.107Z,67.21
2017-07-06T01:41:15.592Z,67.3
2017-07-06T01:41:56.063Z,67.4
2017-07-06T01:42:36.588Z,68.04
2017-07-06T01:43:17.057Z,68.08
2017-07-06T01:43:57.559Z,68.24
2017-07-06T01:44:38.092Z,67.94
2017-07-06T01:45:19.569Z,68.24
2017-07-06T01:46:00.061Z,67.79
2017-07-06T01:46:40.613Z,68.17
2017-07-06T01:47:21.061Z,68.04
2017-07-06T01:48:01.629Z,68.04
2017-07-06T01:48:42.084Z,68.14
2017-07-06T01:49:22.615Z,68.52
2017-07-06T01:50:03.115Z,68.33
2017-07-06T01:50:43.577Z,68.72
2017-07-06T01:51:24.068Z,68.62
2017-07-06T01:52:04.643Z,68.24
2017-07-06T01:52:45.166Z,68.62
2017-07-06T01:53:25.668Z,68.37
2017-07-06T01:54:06.193Z,68.33
2017-07-06T01:54:46.714Z,67.94
2017-07-06T01:55:27.219Z,68.33
2017-07-06T01:56:07.730Z,68.27
2017-07-06T01:56:48.218Z,68.08
2017-07-06T01:57:28.754Z,68.17
2017-07-06T01:58:09.216Z,68.14
2017-07-06T01:58:49.790Z,68.14
2017-07-06T01:59:30.280Z,68.52
2017-07-06T02:00:10.760Z,68.24
2017-07-06T02:00:51.296Z,68.04
2017-07-06T02:01:31.784Z,68.14
2017-07-06T02:02:12.316Z,68.43
2017-07-06T02:02:52.829Z,68.52
2017-07-06T02:03:33.332Z,68.62
2017-07-06T02:04:13.863Z,68.43
2017-07-06T02:04:54.357Z,68.14
2017-07-06T02:05:34.837Z,68.43
2017-07-06T02:06:15.409Z,68.33
2017-07-06T02:06:55.813Z,68.52
2017-07-06T02:07:36.349Z,68.52
2017-07-06T02:08:16.847Z,68.33
2017-07-06T02:08:57.371Z,68.04
2017-07-06T02:09:37.878Z,68.52
2017-07-06T02:10:18.402Z,68.52
2017-07-06T02:10:58.918Z,68.52
2017-07-06T02:11:39.397Z,68.52
2017-07-06T02:12:19.907Z,68.52
2017-07-06T02:13:00.541Z,68.33
2017-07-06T02:13:41.068Z,68.52
2017-07-06T02:14:21.562Z,68.52
2017-07-06T02:15:02.096Z,68.62
2017-07-06T02:15:42.609Z,68.43
2017-07-06T02:16:23.124Z,68.43
2017-07-06T02:17:03.635Z,68.24
2017-07-06T02:17:44.130Z,68.24
2017-07-06T02:18:24.622Z,68.62
2017-07-06T02:19:05.096Z,68.72
2017-07-06T02:19:45.622Z,69.01
2017-07-06T02:20:26.083Z,68.62
2017-07-06T02:21:06.625Z,68.52
2017-07-06T02:21:47.110Z,68.91
2017-07-06T02:22:27.617Z,68.72
2017-07-06T02:23:08.100Z,69.01
2017-07-06T02:23:48.628Z,68.91
2017-07-06T02:24:29.106Z,68.82
2017-07-06T02:25:09.609Z,69.46
2017-07-06T02:25:50.110Z,69.26
2017-07-06T02:26:30.607Z,69.17
2017-07-06T02:27:11.115Z,69.94
2017-07-06T02:27:51.601Z,69.94
2017-07-06T02:28:32.138Z,69.94
2017-07-06T02:29:12.659Z,70.14
2017-07-06T02:29:53.159Z,69.65
2017-07-06T02:30:33.704Z,69.56
2017-07-06T02:31:14.211Z,69.26
2017-07-06T02:31:54.734Z,69.17
2017-07-06T02:32:35.247Z,69.36
2017-07-06T02:33:15.704Z,69.2
2017-07-06T02:33:56.201Z,69.36
2017-07-06T02:34:36.712Z,69.17
2017-07-06T02:35:17.202Z,69.36
2017-07-06T02:35:57.711Z,69.07
2017-07-06T02:36:38.148Z,69.65
2017-07-06T02:37:18.673Z,69.46
2017-07-06T02:37:59.243Z,69.74
2017-07-06T02:38:39.754Z,69.84
2017-07-06T02:39:20.253Z,70.14
2017-07-06T02:40:00.740Z,69.94
2017-07-06T02:40:41.258Z,70.23
2017-07-06T02:41:22.036Z,69.65
2017-07-06T02:42:02.514Z,69.65
2017-07-06T02:42:43.016Z,69.65
2017-07-06T02:43:23.509Z,69.74
2017-07-06T02:44:04.010Z,69.74
2017-07-06T02:44:44.507Z,70.04
2017-07-06T02:45:25.064Z,69.94
2017-07-06T02:46:05.489Z,69.94
2017-07-06T02:46:45.996Z,69.84
2017-07-06T02:47:26.485Z,69.56
2017-07-06T02:48:07.006Z,69.74
2017-07-06T02:48:47.522Z,69.74
2017-07-06T02:49:27.970Z,70.04
2017-07-06T02:50:08.541Z,70.04
2017-07-06T02:50:49.015Z,69.94
2017-07-06T02:51:29.463Z,69.94
2017-07-06T02:52:10.005Z,69.65
2017-07-06T02:52:50.488Z,69.56
2017-07-06T02:53:31.001Z,70.04
2017-07-06T02:54:11.509Z,69.94
2017-07-06T02:54:52.036Z,69.84
2017-07-06T02:55:32.519Z,69.74
2017-07-06T02:56:13.010Z,69.65
2017-07-06T02:56:53.539Z,69.65
2017-07-06T02:57:34.043Z,69.84
2017-07-06T02:58:14.620Z,69.84
2017-07-06T02:58:55.068Z,69.94
2017-07-06T02:59:35.573Z,70.14
2017-07-06T03:00:16.092Z,69.94
2017-07-06T03:00:56.569Z,69.94
2017-07-06T03:01:37.062Z,70.14
2017-07-06T03:02:17.650Z,70.04
2017-07-06T03:02:58.133Z,69.65
2017-07-06T03:03:38.631Z,70.04
2017-07-06T03:04:19.129Z,69.84
2017-07-06T03:04:59.634Z,70.04
2017-07-06T03:05:40.174Z,70.04
2017-07-06T03:06:20.651Z,70.52
2017-07-06T03:07:01.094Z,69.94
2017-07-06T03:07:41.606Z,70.9
2017-07-06T03:08:22.100Z,71.2
2017-07-06T03:09:02.637Z,71.2
2017-07-06T03:09:43.354Z,71.39
2017-07-06T03:10:23.817Z,71.39
2017-07-06T03:11:04.291Z,71.3
2017-07-06T03:11:44.831Z,71.2
2017-07-06T03:12:25.290Z,71.1
2017-07-06T03:13:05.801Z,71.39
2017-07-06T03:13:46.257Z,71.39
2017-07-06T03:14:26.783Z,71.3
2017-07-06T03:15:07.303Z,71.1
2017-07-06T03:15:47.790Z,71.48
2017-07-06T03:16:28.315Z,71.45
2017-07-06T03:17:08.827Z,71.16
2017-07-06T03:17:49.345Z,71.64
2017-07-06T03:18:29.806Z,71.64
2017-07-06T03:19:10.289Z,71.55
2017-07-06T03:19:50.794Z,72.13
2017-07-06T03:20:31.296Z,72.03
2017-07-06T03:21:11.830Z,72.32
2017-07-06T03:21:52.319Z,71.74
2017-07-06T03:22:32.834Z,72.03
2017-07-06T03:23:13.564Z,71.64
2017-07-06T03:23:54.055Z,71.84
2017-07-06T03:24:34.561Z,71.64
2017-07-06T03:25:15.031Z,71.64
2017-07-06T03:25:55.679Z,71.97
2017-07-06T03:26:36.178Z,71.97
2017-07-06T03:27:16.673Z,71.48
2017-07-06T03:27:57.170Z,71.45
2017-07-06T03:28:37.695Z,71.58
2017-07-06T03:29:18.182Z,71.68
2017-07-06T03:29:58.671Z,71.94
2017-07-06T03:30:39.198Z,72.22
2017-07-06T03:31:19.709Z,71.94
2017-07-06T03:32:00.162Z,71.97
2017-07-06T03:32:40.697Z,71.84
2017-07-06T03:33:21.205Z,71.88
2017-07-06T03:34:01.724Z,71.16
2017-07-06T03:34:42.169Z,71.3
2017-07-06T03:35:22.677Z,71.26
2017-07-06T03:36:03.203Z,71.3
2017-07-06T03:36:43.686Z,71.45
2017-07-06T03:37:24.226Z,71.55
2017-07-06T03:38:04.692Z,71.94
2017-07-06T03:38:45.186Z,71.97
2017-07-06T03:39:25.672Z,72.03
2017-07-06T03:40:06.224Z,72.22
2017-07-06T03:40:46.686Z,72.71
2017-07-06T03:41:27.178Z,72.13
2017-07-06T03:42:07.716Z,72.42
2017-07-06T03:42:48.219Z,71.94
2017-07-06T03:43:28.686Z,72.64
2017-07-06T03:44:09.180Z,71.97
2017-07-06T03:44:49.756Z,71.68
2017-07-06T03:45:30.242Z,72.06
2017-07-06T03:46:10.791Z,71.2
2017-07-06T03:46:51.279Z,71.58
2017-07-06T03:47:31.876Z,71.39
2017-07-06T03:48:12.381Z,71.48
2017-07-06T03:48:52.946Z,71.2
2017-07-06T03:49:33.417Z,71.3
2017-07-06T03:50:13.888Z,71.39
2017-07-06T03:50:54.412Z,71.1
2017-07-06T03:51:34.924Z,71
2017-07-06T03:52:15.377Z,70.72
2017-07-06T03:52:55.891Z,70.52
2017-07-06T03:53:36.361Z,70.52
2017-07-06T03:54:16.889Z,69.94
2017-07-06T03:54:57.439Z,69.94
2017-07-06T03:55:37.935Z,69.84
2017-07-06T03:56:18.435Z,69.84
2017-07-06T03:56:58.949Z,69.46
2017-07-06T03:57:39.400Z,69.17
2017-07-06T03:58:19.934Z,69.26
2017-07-06T03:59:00.434Z,69.36
2017-07-06T03:59:40.905Z,68.98
2017-07-06T04:00:21.436Z,68.78
2017-07-06T04:01:01.873Z,68.88
2017-07-06T04:01:42.372Z,68.88
2017-07-06T04:02:22.938Z,68.68
2017-07-06T04:03:03.416Z,68.88
2017-07-06T04:03:43.862Z,68.88
2017-07-06T04:04:24.369Z,68.49
2017-07-06T04:05:04.854Z,68.68
2017-07-06T04:05:45.419Z,68.49
2017-07-06T04:06:25.916Z,68.78
2017-07-06T04:07:06.408Z,68.49
2017-07-06T04:07:46.938Z,68.59
2017-07-06T04:08:27.459Z,68.2
2017-07-06T04:09:08.054Z,68.4
2017-07-06T04:09:48.539Z,68.49
2017-07-06T04:10:29.875Z,68.2
2017-07-06T04:11:10.376Z,68.2
2017-07-06T04:11:50.946Z,68.3
2017-07-06T04:12:31.443Z,68.1
2017-07-06T04:13:11.966Z,68.3
2017-07-06T04:13:52.422Z,68.2
2017-07-06T04:14:32.923Z,68.3
2017-07-06T04:15:13.427Z,68.2
2017-07-06T04:15:53.975Z,68.68
2017-07-06T04:16:34.429Z,68.68
2017-07-06T04:17:14.979Z,68.88
2017-07-06T04:17:55.487Z,69.07
2017-07-06T04:18:36.042Z,68.78
2017-07-06T04:19:16.591Z,68.49
2017-07-06T04:19:57.091Z,68.88
2017-07-06T04:20:37.557Z,68.59
2017-07-06T04:21:18.091Z,68.98
2017-07-06T04:21:58.584Z,68.59
2017-07-06T04:22:39.085Z,68.68
2017-07-06T04:23:19.575Z,68.78
2017-07-06T04:24:00.079Z,68.68
2017-07-06T04:24:40.598Z,68.98
2017-07-06T04:25:21.093Z,68.88
2017-07-06T04:26:01.598Z,68.68
2017-07-06T04:26:42.142Z,68.1
2017-07-06T04:27:22.601Z,68.49
2017-07-06T04:28:03.107Z,68.04
2017-07-06T04:28:43.715Z,68.1
2017-07-06T04:29:24.254Z,68.33
2017-07-06T04:30:04.749Z,68.2
2017-07-06T04:30:45.231Z,68.2
2017-07-06T04:31:25.676Z,68.33
2017-07-06T04:32:06.212Z,68.14
2017-07-06T04:32:46.760Z,67.91
2017-07-06T04:33:27.239Z,68.24
2017-07-06T04:34:07.746Z,68.4
2017-07-06T04:34:48.232Z,68.52
2017-07-06T04:35:28.738Z,68.43
2017-07-06T04:36:09.448Z,68.52
2017-07-06T04:36:49.928Z,68.24
2017-07-06T04:37:30.442Z,68.52
2017-07-06T04:38:11.034Z,68.24
2017-07-06T04:38:51.593Z,68.14
2017-07-06T04:39:32.175Z,68.52
2017-07-06T04:40:12.714Z,68.24
2017-07-06T04:40:53.892Z,68.33
2017-07-06T04:41:34.411Z,67.98
2017-07-06T04:42:14.943Z,66.91
2017-07-06T04:42:55.412Z,67.21
2017-07-06T04:43:35.966Z,67.11
2017-07-06T04:44:16.448Z,67.11
2017-07-06T04:44:56.966Z,66.11
2017-07-06T04:45:37.566Z,63.72
2017-07-06T04:46:18.031Z,63.07
2017-07-06T04:46:58.512Z,63.46
2017-07-06T04:47:39.009Z,63.53
2017-07-06T04:48:19.491Z,64.3
2017-07-06T04:49:00.012Z,64.56
2017-07-06T04:49:40.515Z,64.95
2017-07-06T04:50:21.052Z,64.59
2017-07-06T04:51:01.592Z,63.56
2017-07-06T04:51:42.102Z,62.88
2017-07-06T04:52:22.698Z,63.43
2017-07-06T04:53:03.185Z,63.24
2017-07-06T04:53:43.645Z,63.53
2017-07-06T04:54:24.104Z,63.98
2017-07-06T04:55:04.642Z,64.17
2017-07-06T04:55:45.129Z,64.47
2017-07-06T04:56:25.625Z,64.47
2017-07-06T04:57:06.131Z,64.75
2017-07-06T04:57:46.596Z,64.75
2017-07-06T04:58:27.148Z,64.75
2017-07-06T04:59:07.742Z,64.27
2017-07-06T04:59:48.126Z,64.37
2017-07-06T05:00:28.610Z,64.75
2017-07-06T05:01:09.103Z,64.27
2017-07-06T05:01:49.619Z,64.17
2017-07-06T05:02:30.134Z,64.07
2017-07-06T05:03:10.661Z,63.98
2017-07-06T05:03:51.153Z,63.59
2017-07-06T05:04:31.628Z,63.59
2017-07-06T05:05:12.148Z,63.59
2017-07-06T05:05:52.622Z,63.59
2017-07-06T05:06:33.219Z,64.24
2017-07-06T05:07:13.699Z,64.82
2017-07-06T05:07:54.218Z,65.11
2017-07-06T05:08:34.689Z,65.4
2017-07-06T05:09:15.208Z,65.69
2017-07-06T05:09:55.815Z,65.88
2017-07-06T05:10:36.277Z,66.27
2017-07-06T05:11:16.815Z,65.88
2017-07-06T05:11:57.279Z,66.17
2017-07-06T05:12:37.773Z,66.27
2017-07-06T05:13:18.528Z,66.17
2017-07-06T05:13:59.085Z,65.69
2017-07-06T05:14:39.612Z,65.59
2017-07-06T05:15:20.132Z,65.2
2017-07-06T05:16:00.598Z,65.69
2017-07-06T05:16:41.129Z,65.3
2017-07-06T05:17:21.651Z,65.11
2017-07-06T05:18:02.177Z,65.2
2017-07-06T05:18:42.665Z,64.85
2017-07-06T05:19:23.179Z,64.27
2017-07-06T05:20:03.997Z,64.27
2017-07-06T05:20:44.532Z,67.37
2017-07-06T05:21:25.062Z,70.56
2017-07-06T05:22:05.570Z,73.27
2017-07-06T05:22:46.154Z,72.4
2017-07-06T05:23:26.654Z,72.3
2017-07-06T05:24:07.208Z,70.76
2017-07-06T05:24:47.715Z,70.37
2017-07-06T05:25:28.193Z,69.01
2017-07-06T05:26:08.683Z,70.56
2017-07-06T05:26:49.211Z,71.14
2017-07-06T05:27:29.705Z,68.63
2017-07-06T05:28:10.198Z,69.11
2017-07-06T05:28:50.683Z,70.86
2017-07-06T05:29:31.207Z,71.72
2017-07-06T05:30:11.672Z,72.11
2017-07-06T05:30:52.186Z,72.11
2017-07-06T05:31:32.694Z,71.44
2017-07-06T05:32:13.204Z,71.14
2017-07-06T05:32:53.715Z,72.02
2017-07-06T05:33:34.205Z,72.6
2017-07-06T05:34:14.713Z,72.11
2017-07-06T05:34:55.199Z,71.95
2017-07-06T05:35:35.709Z,71.24
2017-07-06T05:36:16.234Z,71.28
2017-07-06T05:36:56.710Z,71.95
2017-07-06T05:37:37.195Z,73.21
2017-07-06T05:38:17.669Z,73.57
2017-07-06T05:38:58.326Z,73.27
2017-07-06T05:39:38.806Z,72.89
2017-07-06T05:40:19.426Z,72.21
2017-07-06T05:41:00.120Z,72.3
2017-07-06T05:41:40.664Z,72.21
2017-07-06T05:42:21.152Z,72.89
2017-07-06T05:43:01.634Z,72.89
2017-07-06T05:43:42.175Z,72.3
2017-07-06T05:44:22.648Z,72.5
2017-07-06T05:45:03.174Z,71.82
2017-07-06T05:45:43.678Z,71.82
2017-07-06T05:46:24.385Z,72.11
2017-07-06T05:47:04.868Z,72.11
2017-07-06T05:47:45.377Z,71.82
2017-07-06T05:48:25.885Z,71.72
2017-07-06T05:49:06.358Z,71.44
2017-07-06T05:49:46.880Z,71.44
2017-07-06T05:50:27.340Z,71.04
2017-07-06T05:51:07.888Z,70.95
2017-07-06T05:51:48.398Z,70.11
2017-07-06T05:52:28.939Z,70.56
2017-07-06T05:53:09.490Z,69.73
2017-07-06T05:53:50.013Z,71.04
2017-07-06T05:54:30.525Z,70.4
2017-07-06T05:55:11.054Z,70.7
2017-07-06T05:55:51.499Z,70.11
2017-07-06T05:56:32.007Z,73.5
2017-07-06T05:57:12.524Z,73.69
2017-07-06T05:57:53.089Z,73.99
2017-07-06T05:58:33.577Z,71.37
2017-07-06T05:59:14.102Z,70.67
2017-07-06T05:59:54.621Z,67.63
2017-07-06T06:00:35.120Z,63.17
2017-07-06T06:01:15.715Z,60.05
2017-07-06T06:01:56.213Z,58.13
2017-07-06T06:02:36.740Z,56.23
2017-07-06T06:03:17.259Z,55.16
2017-07-06T06:03:57.762Z,53.73
2017-07-06T06:04:38.321Z,54.11
2017-07-06T06:05:18.826Z,54.21
2017-07-06T06:05:59.351Z,53.83
2017-07-06T06:06:39.852Z,54.02
2017-07-06T06:07:20.357Z,53.92
2017-07-06T06:08:00.880Z,54.19
2017-07-06T06:08:41.403Z,53.44
2017-07-06T06:09:21.862Z,51.87
2017-07-06T06:10:02.372Z,50.99
2017-07-06T06:10:42.892Z,50.12
2017-07-06T06:11:23.432Z,49.93
2017-07-06T06:12:03.909Z,51.29
2017-07-06T06:12:44.399Z,54.11
2017-07-06T06:13:24.910Z,54.11
2017-07-06T06:14:05.441Z,54.7
2017-07-06T06:14:46.028Z,55.87
2017-07-06T06:15:26.542Z,56.56
2017-07-06T06:16:07.084Z,54.53
2017-07-06T06:16:47.579Z,51.8
2017-07-06T06:17:28.073Z,53.75
2017-07-06T06:18:08.617Z,54.8
2017-07-06T06:18:49.061Z,54.24
2017-07-06T06:20:37.095Z,50.8
2017-07-06T06:21:17.615Z,50.53
2017-07-06T06:21:58.136Z,52.58
2017-07-06T06:22:38.691Z,53.56
2017-07-06T06:23:19.218Z,60
2017-07-06T06:23:59.734Z,61.04
2017-07-06T06:24:40.274Z,59.67
2017-07-06T06:25:20.791Z,56.85
2017-07-06T06:26:01.301Z,60.46
2017-07-06T06:26:41.919Z,64.16
2017-07-06T06:27:22.450Z,63.57
2017-07-06T06:28:02.970Z,57.24
2017-07-06T06:28:43.473Z,55.19
2017-07-06T06:29:24.326Z,57.34
2017-07-06T06:30:04.800Z,56.26
2017-07-06T06:30:45.343Z,56.2
2017-07-06T06:31:25.870Z,58.92
2017-07-06T06:32:06.343Z,56.68
2017-07-06T06:32:46.887Z,56.38
2017-07-06T06:33:27.378Z,56.2
2017-07-06T06:34:07.896Z,57.36
2017-07-06T06:34:48.418Z,56.29
2017-07-06T06:35:28.921Z,59.22
2017-07-06T06:36:09.451Z,58.53
2017-07-06T06:36:49.978Z,61.27
2017-07-06T06:37:30.450Z,59.22
2017-07-06T06:38:10.940Z,56.48
2017-07-06T06:38:51.456Z,57.65
2017-07-06T06:39:32.038Z,58.73
2017-07-06T06:40:12.565Z,61.56
2017-07-06T06:40:53.060Z,58.73
2017-07-06T06:41:33.608Z,58.63
2017-07-06T06:42:14.139Z,54.93
2017-07-06T06:42:54.614Z,52.51
2017-07-06T06:43:35.100Z,53.09
2017-07-06T06:44:15.637Z,56.22
2017-07-06T06:44:56.115Z,56.29
2017-07-06T06:45:36.645Z,55.44
2017-07-06T06:46:17.130Z,54.85
2017-07-06T06:46:57.669Z,54.56
2017-07-06T06:47:38.189Z,50.75
2017-07-06T06:48:18.692Z,53.78
2017-07-06T06:48:59.198Z,54.75
2017-07-06T06:49:39.700Z,54.66
2017-07-06T06:50:20.179Z,55.12
2017-07-06T06:51:00.672Z,56.41
2017-07-06T06:51:41.204Z,56.68
2017-07-06T06:52:21.709Z,55.41
2017-07-06T06:53:02.225Z,56
2017-07-06T06:53:42.751Z,56.36
2017-07-06T06:54:23.314Z,53.24
2017-07-06T06:55:03.848Z,52.68
2017-07-06T06:55:44.389Z,50.9
2017-07-06T06:56:24.946Z,50.14
2017-07-06T06:57:05.521Z,52.09
2017-07-06T06:57:46.346Z,55.19
2017-07-06T06:58:26.843Z,56.65
2017-07-06T06:59:07.412Z,53.73
2017-07-06T06:59:47.933Z,55.09
2017-07-06T07:00:28.453Z,55.87
2017-07-06T07:01:08.917Z,54.7
2017-07-06T07:01:49.439Z,55.12
2017-07-06T07:02:29.996Z,56.58
2017-07-06T07:03:10.566Z,55.87
2017-07-06T07:03:50.969Z,54.73
2017-07-06T07:04:31.525Z,56.48
2017-07-06T07:05:11.961Z,58.12
2017-07-06T07:05:52.485Z,58.83
2017-07-06T07:06:33.038Z,57.04
2017-07-06T07:07:13.605Z,61.72
2017-07-06T07:07:53.999Z,58.4
2017-07-06T07:08:34.495Z,60
2017-07-06T07:09:14.999Z,55.12
2017-07-06T07:09:55.536Z,54.63
2017-07-06T07:10:36.044Z,54.24
2017-07-06T07:11:16.565Z,55.8
2017-07-06T07:11:57.105Z,56.48
2017-07-06T07:12:37.572Z,56.58
2017-07-06T07:13:18.037Z,56.32
2017-07-06T07:13:58.545Z,54.85
2017-07-06T07:14:39.029Z,56.12
2017-07-06T07:15:19.607Z,56.51
2017-07-06T07:16:00.065Z,57.29
2017-07-06T07:16:40.601Z,58.27
2017-07-06T07:17:21.655Z,58.76
2017-07-06T07:18:02.116Z,52.61
2017-07-06T07:18:42.645Z,56.51
2017-07-06T07:19:23.191Z,56.54
2017-07-06T07:20:03.675Z,58.98
2017-07-06T07:20:44.253Z,60.42
2017-07-06T07:21:24.658Z,58.07
2017-07-06T07:22:05.200Z,57.29
2017-07-06T07:22:45.657Z,55.54
2017-07-06T07:23:26.179Z,53.09
2017-07-06T07:24:06.730Z,51.95
2017-07-06T07:24:47.252Z,50.98
2017-07-06T07:25:27.751Z,55.27
2017-07-06T07:26:08.303Z,58.2
2017-07-06T07:26:48.788Z,58.5
2017-07-06T07:27:29.271Z,57.32
2017-07-06T07:28:09.765Z,62.89
2017-07-06T07:28:50.284Z,63.24
2017-07-06T07:29:30.753Z,58.56
2017-07-06T07:30:11.307Z,57.29
2017-07-06T07:30:51.764Z,59.15
2017-07-06T07:31:32.279Z,51.14
2017-07-06T07:32:12.753Z,49.49
2017-07-06T07:32:53.286Z,50.2
2017-07-06T07:33:33.797Z,51.86
2017-07-06T07:34:14.280Z,54.1
2017-07-06T07:34:54.799Z,58.4
2017-07-06T07:35:35.307Z,51.95
2017-07-06T07:36:15.803Z,55.18
2017-07-06T07:36:56.344Z,55.66
2017-07-06T07:37:36.826Z,56.25
2017-07-06T07:38:17.353Z,58.59
2017-07-06T07:38:57.842Z,57.32
2017-07-06T07:39:38.448Z,57.32
2017-07-06T07:40:18.958Z,54.3
2017-07-06T07:40:59.500Z,55.37
2017-07-06T07:41:39.935Z,56.84
2017-07-06T07:42:20.461Z,58.11
2017-07-06T07:43:00.932Z,59.77
2017-07-06T07:43:41.412Z,58.47
2017-07-06T07:44:21.919Z,58.47
2017-07-06T07:45:02.445Z,56.48
2017-07-06T07:45:42.927Z,53.66
2017-07-06T07:46:23.450Z,55.32
2017-07-06T07:47:03.948Z,57.26
2017-07-06T07:47:44.551Z,56.2
2017-07-06T07:48:25.050Z,55.34
2017-07-06T07:49:05.692Z,55.15
2017-07-06T07:49:46.168Z,53.88
2017-07-06T07:50:26.681Z,53.58
2017-07-06T07:51:07.279Z,53.58
2017-07-06T07:51:47.760Z,53.29
2017-07-06T07:52:28.217Z,50.88
2017-07-06T07:53:08.741Z,52.02
2017-07-06T07:53:49.228Z,50.36
2017-07-06T07:54:29.781Z,49.22
2017-07-06T07:55:10.312Z,47.66
2017-07-06T07:55:50.864Z,49.22
2017-07-06T07:56:31.408Z,48.61
2017-07-06T07:57:11.886Z,47.75
2017-07-06T07:57:52.390Z,49.22
2017-07-06T07:58:32.894Z,48.54
2017-07-06T07:59:13.432Z,49.02
2017-07-06T07:59:53.892Z,49.22
2017-07-06T08:00:34.431Z,48.07
2017-07-06T08:01:14.890Z,46.89
2017-07-06T08:01:55.417Z,46.6
2017-07-06T08:02:35.947Z,48.85
2017-07-06T08:03:16.452Z,53.22
2017-07-06T08:03:56.994Z,49.04
2017-07-06T08:04:37.489Z,50.29
2017-07-06T08:05:17.991Z,47.07
2017-07-06T08:05:58.507Z,47.67
2017-07-06T08:06:39.039Z,46.6
2017-07-06T08:07:19.539Z,46.01
2017-07-06T08:07:59.996Z,46.09
2017-07-06T08:08:40.511Z,46.99
2017-07-06T08:09:21.012Z,46.89
2017-07-06T08:10:01.535Z,45.31
2017-07-06T08:10:42.023Z,46.19
2017-07-06T08:11:22.539Z,47.19
2017-07-06T08:12:03.049Z,48.07
2017-07-06T08:12:43.556Z,46.09
2017-07-06T08:13:24.092Z,45.21
2017-07-06T08:14:04.634Z,47.77
2017-07-06T08:14:45.103Z,48.83
2017-07-06T08:15:25.663Z,50.71
2017-07-06T08:16:06.097Z,53.03
2017-07-06T08:16:46.581Z,52.64
2017-07-06T08:17:27.147Z,52.73
2017-07-06T08:18:07.639Z,53.22
2017-07-06T08:18:48.104Z,52.34
2017-07-06T08:19:28.637Z,53.88
2017-07-06T08:20:09.077Z,54.95
2017-07-06T08:20:49.621Z,53.39
2017-07-06T08:21:30.154Z,52.12
2017-07-06T08:22:10.756Z,51.24
2017-07-06T08:22:51.277Z,53.39
2017-07-06T08:23:31.826Z,53.39
2017-07-06T08:24:12.349Z,54.85
2017-07-06T08:24:52.839Z,55.83
2017-07-06T08:25:33.371Z,56.51
2017-07-06T08:26:13.915Z,57.13
2017-07-06T08:26:54.322Z,54
2017-07-06T08:27:34.883Z,53.81
2017-07-06T08:28:15.364Z,53.71
2017-07-06T08:28:55.914Z,52.93
2017-07-06T08:29:36.590Z,54.39
2017-07-06T08:30:17.132Z,58.4
2017-07-06T08:30:57.678Z,57.29
2017-07-06T08:31:38.155Z,53.81
2017-07-06T08:32:18.642Z,58.56
2017-07-06T08:32:59.164Z,55.54
2017-07-06T08:33:39.647Z,56.1
2017-07-06T08:34:20.164Z,58.53
2017-07-06T08:35:00.636Z,56.12
2017-07-06T08:35:41.132Z,55.71
2017-07-06T08:36:21.714Z,60
2017-07-06T08:37:02.211Z,61.36
2017-07-06T08:37:42.699Z,56.58
2017-07-06T08:38:23.218Z,52.56
2017-07-06T08:39:03.709Z,54.24
2017-07-06T08:39:44.167Z,56.68
2017-07-06T08:40:24.678Z,58.34
2017-07-06T08:41:05.215Z,58.12
2017-07-06T08:41:45.683Z,58.09
2017-07-06T08:42:26.175Z,58.58
2017-07-06T08:43:06.695Z,57.7
2017-07-06T08:43:47.178Z,56.43
2017-07-06T08:44:27.744Z,55.75
2017-07-06T08:45:08.247Z,55.75